.
WxDataArchive / Data Records for 2010-12-09
2010-12-08 December 2010 2010-12-10

Data Records for Thursday, 09 December 2010

Time	Temp	Chill	HIndex	Humid	Dewpt	 Wind 	HiWind	WindDir	Rain 	Barom 
-----	----	-----	------	-----	-----	------	------	-------	-----	----- 
00:00	16.1	16.1	16.1	82	11.6	0	0	---	0.00	30.302 
00:05	15.9	15.9	15.9	82	11.4	0	0	---	0.00	30.302 
00:10	15.9	15.9	15.9	82	11.4	0	0	---	0.00	30.302 
00:15	15.7	15.7	15.7	82	11.2	0	0	---	0.00	30.301 
00:20	15.6	15.6	15.6	82	11.1	0	0	---	0.00	30.301 
00:25	15.4	15.4	15.4	83	11.2	0	0	---	0.00	30.301 
00:30	15.4	15.4	15.4	83	11.2	0	0	---	0.00	30.312 
00:35	15.2	15.2	15.2	83	11.0	0	0	---	0.00	30.312 
00:40	15.2	15.2	15.2	83	11.0	0	0	---	0.00	30.312 
00:45	15.2	15.2	15.2	83	11.0	0	0	---	0.00	30.316 
00:50	15.1	15.1	15.1	83	10.9	0	0	---	0.00	30.316 
00:55	14.9	14.9	14.9	83	10.7	0	0	---	0.00	30.316 
01:00	14.8	14.8	14.8	83	10.6	0	0	---	0.00	30.316 
01:05	14.4	14.4	14.4	83	10.2	0	0	---	0.00	30.316 
01:10	14.3	14.3	14.3	83	10.1	0	0	---	0.00	30.316 
01:15	14.0	14.0	14.0	83	9.8	0	0	---	0.00	30.310 
01:20	13.8	13.8	13.8	84	9.9	0	0	---	0.00	30.310 
01:25	13.6	13.6	13.6	84	9.7	0	0	---	0.00	30.310 
01:30	13.5	13.5	13.5	84	9.6	0	0	---	0.00	30.309 
01:35	13.3	13.3	13.3	84	9.4	0	0	---	0.00	30.309 
01:40	12.9	12.9	12.9	84	9.0	0	0	---	0.00	30.309 
01:45	12.8	12.8	12.8	84	8.9	0	0	---	0.00	30.306 
01:50	12.4	12.4	12.4	84	8.5	0	0	---	0.00	30.306 
01:55	12.3	12.3	12.3	84	8.4	0	0	---	0.00	30.306 
02:00	12.1	12.1	12.1	84	8.2	0	0	---	0.00	30.310 
02:05	11.9	11.9	11.9	84	8.0	0	0	---	0.00	30.310 
02:10	11.7	11.7	11.7	84	7.8	0	0	---	0.00	30.310 
02:15	11.6	11.6	11.6	85	8.0	0	0	---	0.00	30.309 
02:20	11.4	11.4	11.4	85	7.8	0	0	---	0.00	30.309 
02:25	11.4	11.4	11.4	85	7.8	0	0	---	0.00	30.309 
02:30	11.6	11.6	11.6	85	8.0	0	0	---	0.00	30.322 
02:35	11.7	11.7	11.7	85	8.1	0	0	---	0.00	30.322 
02:40	11.9	11.9	11.9	86	8.5	0	0	---	0.00	30.322 
02:45	12.4	12.4	12.4	86	9.0	0	0	---	0.00	30.326 
02:50	12.8	12.8	12.8	87	9.7	0	0	---	0.00	30.326 
02:55	13.1	13.1	13.1	87	10.0	0	0	---	0.00	30.326 
03:00	13.3	13.3	13.3	87	10.2	0	0	---	0.00	30.323 
03:05	13.5	13.5	13.5	87	10.4	0	0	---	0.00	30.323 
03:10	13.5	13.5	13.5	87	10.4	0	0	---	0.00	30.323 
03:15	13.5	13.5	13.5	87	10.4	0	0	---	0.00	30.331 
03:20	13.5	13.5	13.5	87	10.4	0	0	---	0.00	30.331 
03:25	13.5	13.5	13.5	87	10.4	0	0	---	0.00	30.331 
03:30	13.5	13.5	13.5	87	10.4	0	0	---	0.00	30.332 
03:35	13.3	13.3	13.3	87	10.2	0	0	---	0.00	30.332 
03:40	13.3	13.3	13.3	87	10.2	0	0	---	0.00	30.332 
03:45	13.5	13.5	13.5	87	10.4	0	0	---	0.00	30.334 
03:50	13.5	13.5	13.5	87	10.4	0	0	---	0.00	30.334 
03:55	13.5	13.5	13.5	87	10.4	0	0	---	0.00	30.334 
04:00	13.5	13.5	13.5	87	10.4	0	0	---	0.00	30.334 
04:05	13.5	13.5	13.5	87	10.4	0	0	---	0.00	30.334 
04:10	13.5	13.5	13.5	87	10.4	0	0	---	0.00	30.334 
04:15	13.6	13.6	13.6	87	10.5	0	0	---	0.00	30.338 
04:20	13.6	13.6	13.6	87	10.5	0	0	---	0.00	30.338 
04:25	13.8	13.8	13.8	87	10.7	0	0	---	0.00	30.338 
04:30	13.8	13.8	13.8	87	10.7	0	0	---	0.00	30.335 
04:35	14.0	14.0	14.0	87	10.9	0	0	---	0.00	30.335 
04:40	14.0	14.0	14.0	87	10.9	0	0	---	0.00	30.335 
04:45	14.0	14.0	14.0	87	10.9	0	0	---	0.00	30.333 
04:50	14.0	14.0	14.0	87	10.9	0	0	---	0.00	30.333 
04:55	14.0	14.0	14.0	87	10.9	0	0	---	0.00	30.333 
05:00	14.0	14.0	14.0	87	10.9	0	0	---	0.00	30.336 
05:05	13.8	13.8	13.8	87	10.7	0	0	---	0.00	30.336 
05:10	13.8	13.8	13.8	87	10.7	0	0	---	0.00	30.336 
05:15	13.8	13.8	13.8	87	10.7	0	0	---	0.00	30.340 
05:20	13.8	13.8	13.8	87	10.7	0	0	---	0.00	30.340 
05:25	13.8	13.8	13.8	87	10.7	0	0	---	0.00	30.340 
05:30	13.8	13.8	13.8	87	10.7	0	0	---	0.00	30.342 
05:35	13.6	13.6	13.6	87	10.5	0	0	---	0.00	30.342 
05:40	13.6	13.6	13.6	87	10.5	0	0	---	0.00	30.342 
05:45	13.6	13.6	13.6	87	10.5	0	0	---	0.00	30.345 
05:50	13.6	13.6	13.6	87	10.5	0	0	---	0.00	30.345 
05:55	13.6	13.6	13.6	87	10.5	0	0	---	0.00	30.345 
06:00	13.6	13.6	13.6	87	10.5	0	0	---	0.00	30.348 
06:05	13.5	13.5	13.5	87	10.4	0	0	---	0.00	30.348 
06:10	13.5	13.5	13.5	87	10.4	0	0	---	0.00	30.348 
06:15	13.3	13.3	13.3	87	10.2	0	0	---	0.00	30.352 
06:20	13.3	13.3	13.3	87	10.2	0	0	---	0.00	30.352 
06:25	13.1	13.1	13.1	87	10.0	0	0	---	0.00	30.352 
06:30	13.1	13.1	13.1	87	10.0	0	0	---	0.00	30.353 
06:35	13.1	13.1	13.1	87	10.0	0	0	---	0.00	30.353 
06:40	12.9	12.9	12.9	87	9.8	0	0	---	0.00	30.353 
06:45	12.9	12.9	12.9	87	9.8	0	0	---	0.00	30.359 
06:50	12.9	12.9	12.9	87	9.8	0	0	---	0.00	30.359 
06:55	12.9	12.9	12.9	87	9.8	0	0	---	0.00	30.359 
07:00	13.1	13.1	13.1	87	10.0	0	0	---	0.00	30.362 
07:05	13.3	13.3	13.3	87	10.2	0	0	---	0.00	30.362 
07:10	13.1	13.1	13.1	87	10.0	0	0	---	0.00	30.362 
07:15	13.1	13.1	13.1	87	10.0	0	0	---	0.00	30.358 
07:20	12.9	12.9	12.9	87	9.8	0	0	---	0.00	30.358 
07:25	12.8	12.8	12.8	87	9.7	0	0	---	0.00	30.358 
07:30	12.6	12.6	12.6	87	9.5	0	0	---	0.00	30.361 
07:35	12.4	12.4	12.4	87	9.3	0	0	---	0.00	30.361 
07:40	12.3	12.3	12.3	87	9.2	0	0	---	0.00	30.361 
07:45	12.1	12.1	12.1	87	9.0	0	0	---	0.00	30.360 
07:50	12.1	12.1	12.1	87	9.0	0	0	---	0.00	30.360 
07:55	12.1	12.1	12.1	87	9.0	0	0	---	0.00	30.360 
08:00	12.1	12.1	12.1	87	9.0	0	0	---	0.00	30.357 
08:05	12.3	12.3	12.3	87	9.2	0	0	---	0.00	30.357 
08:10	12.4	12.4	12.4	87	9.3	0	0	---	0.00	30.357 
08:15	12.6	12.6	12.6	87	9.5	0	0	---	0.00	30.348 
08:20	12.8	12.8	12.8	87	9.7	0	1	248	0.00	30.348 
08:25	12.9	12.9	12.9	87	9.8	0	0	---	0.00	30.348 
08:30	13.1	13.1	13.1	87	10.0	0	0	---	0.00	30.349 
08:35	13.3	13.3	13.3	87	10.2	0	0	---	0.00	30.349 
08:40	13.5	13.5	13.5	88	10.6	0	1	248	0.00	30.349 
08:45	14.0	14.0	14.0	88	11.1	0	1	248	0.00	30.338 
08:50	14.3	14.3	14.3	88	11.4	0	1	248	0.00	30.338 
08:55	14.8	14.8	14.8	88	11.9	0	1	248	0.00	30.338 
09:00	15.1	15.1	15.1	88	12.2	0	0	---	0.00	30.347 
09:05	15.2	15.2	15.2	88	12.3	0	0	---	0.00	30.347 
09:10	15.6	15.6	15.6	88	12.7	0	1	248	0.00	30.347 
09:15	15.7	15.7	15.7	88	12.8	0	2	248	0.00	30.345 
09:20	16.1	16.1	16.1	87	12.9	0	2	248	0.00	30.345 
09:25	16.2	16.2	16.2	87	13.0	0	2	248	0.00	30.345 
09:30	16.4	16.4	16.4	87	13.2	0	1	248	0.00	30.343 
09:35	16.5	16.5	16.5	87	13.3	0	1	248	0.00	30.343 
09:40	16.9	16.9	16.9	87	13.7	0	1	248	0.00	30.343 
09:45	17.2	17.2	17.2	87	14.0	0	0	---	0.00	30.347 
09:50	17.5	17.5	17.5	86	14.0	0	1	248	0.00	30.347 
09:55	17.7	17.7	17.7	85	14.0	0	1	248	0.00	30.347 
10:00	17.8	17.8	17.8	85	14.1	0	1	248	0.00	30.348 
10:05	18.0	18.0	18.0	85	14.3	0	2	248	0.00	30.348 
10:10	18.3	18.3	18.3	84	14.3	1	2	112	0.00	30.348 
10:15	18.6	18.6	18.6	84	14.6	0	1	112	0.00	30.355 
10:20	19.1	19.1	19.1	83	14.8	0	3	112	0.00	30.355 
10:25	19.2	19.2	19.2	82	14.6	0	2	112	0.00	30.355 
10:30	19.5	19.5	19.5	82	14.9	0	2	112	0.00	30.363 
10:35	20.0	20.0	20.0	81	15.1	0	3	112	0.00	30.363 
10:40	20.3	20.3	20.3	80	15.1	1	3	112	0.00	30.363 
10:45	20.5	20.5	20.5	78	14.8	1	3	68	0.00	30.352 
10:50	20.6	20.6	20.6	77	14.6	1	3	112	0.00	30.352 
10:55	20.8	20.8	20.8	77	14.7	1	4	90	0.00	30.352 
11:00	20.8	20.8	20.8	76	14.5	1	3	68	0.00	30.357 
11:05	21.0	21.0	21.0	76	14.6	1	4	68	0.00	30.357 
11:10	21.1	21.1	21.1	75	14.4	1	3	135	0.00	30.357 
11:15	21.3	21.3	21.3	75	14.6	1	4	112	0.00	30.361 
11:20	21.6	21.6	21.6	75	14.9	1	2	45	0.00	30.361 
11:25	21.8	21.8	21.8	74	14.8	1	4	112	0.00	30.361 
11:30	22.2	22.2	22.2	74	15.2	1	3	90	0.00	30.351 
11:35	22.4	22.4	22.4	73	15.1	1	3	90	0.00	30.351 
11:40	22.9	22.9	22.9	73	15.6	1	3	90	0.00	30.351 
11:45	23.3	23.3	23.3	72	15.6	1	4	112	0.00	30.347 
11:50	23.5	23.5	23.5	70	15.2	1	3	90	0.00	30.347 
11:55	23.3	23.3	23.3	69	14.7	2	4	90	0.00	30.347 
12:00	23.2	23.2	23.2	69	14.6	2	3	112	0.00	30.339 
12:05	23.3	23.3	23.3	69	14.7	1	4	90	0.00	30.339 
12:10	23.5	23.5	23.5	68	14.5	1	4	90	0.00	30.339 
12:15	23.6	23.6	23.6	68	14.6	1	3	112	0.00	30.323 
12:20	23.8	23.8	23.8	67	14.5	1	3	68	0.00	30.323 
12:25	24.1	24.1	24.1	67	14.8	1	4	90	0.00	30.323 
12:30	24.1	24.1	24.1	67	14.8	1	3	90	0.00	30.328 
12:35	24.4	24.4	24.4	67	15.0	1	3	90	0.00	30.328 
12:40	24.5	24.5	24.5	67	15.1	1	3	135	0.00	30.328 
12:45	24.7	24.7	24.7	67	15.3	1	3	112	0.00	30.314 
12:50	24.7	24.7	24.7	68	15.7	1	3	112	0.00	30.314 
12:55	24.8	24.8	24.8	68	15.8	1	3	90	0.00	30.314 
13:00	25.0	25.0	25.0	68	16.0	2	4	90	0.00	30.306 
13:05	25.3	25.3	25.3	68	16.2	1	4	90	0.00	30.306 
13:10	25.4	25.4	25.4	67	16.0	2	6	90	0.00	30.306 
13:15	25.6	25.6	25.6	66	15.8	2	6	112	0.00	30.301 
13:20	25.8	25.8	25.8	66	16.0	2	4	112	0.00	30.301 
13:25	25.8	25.8	25.8	66	16.0	2	5	112	0.00	30.301 
13:30	26.0	26.0	26.0	66	16.2	2	5	112	0.00	30.293 
13:35	26.0	26.0	26.0	67	16.6	1	5	112	0.00	30.293 
13:40	26.1	26.1	26.1	67	16.7	2	4	112	0.00	30.293 
13:45	26.1	26.1	26.1	67	16.7	2	6	90	0.00	30.291 
13:50	26.1	26.1	26.1	67	16.7	2	6	90	0.00	30.291 
13:55	26.3	26.3	26.3	66	16.5	2	5	90	0.00	30.291 
14:00	26.4	26.4	26.4	67	17.0	2	5	112	0.00	30.290 
14:05	26.6	26.6	26.6	66	16.8	2	4	90	0.00	30.290 
14:10	26.7	26.7	26.7	66	16.9	2	5	45	0.00	30.290 
14:15	26.7	26.7	26.7	67	17.2	1	3	112	0.00	30.283 
14:20	26.7	26.7	26.7	67	17.2	1	3	112	0.00	30.283 
14:25	26.9	26.9	26.9	66	17.1	2	4	112	0.00	30.283 
14:30	27.0	27.0	27.0	67	17.5	1	3	90	0.00	30.272 
14:35	27.2	27.2	27.2	68	18.1	1	3	135	0.00	30.272 
14:40	27.3	27.3	27.3	67	17.8	1	3	135	0.00	30.272 
14:45	27.3	27.3	27.3	67	17.8	1	4	112	0.00	30.271 
14:50	27.3	27.3	27.3	67	17.8	1	3	90	0.00	30.271 
14:55	27.3	27.3	27.3	66	17.5	1	4	90	0.00	30.271 
15:00	27.5	27.5	27.5	65	17.3	2	5	112	0.00	30.265 
15:05	27.5	27.5	27.5	65	17.3	1	3	90	0.00	30.265 
15:10	27.5	27.5	27.5	64	16.9	2	6	90	0.00	30.265 
15:15	27.3	27.3	27.3	65	17.1	1	4	90	0.00	30.259 
15:20	27.2	27.2	27.2	64	16.7	2	5	112	0.00	30.259 
15:25	27.2	27.2	27.2	65	17.0	2	5	112	0.00	30.259 
15:30	27.2	27.2	27.2	65	17.0	2	6	112	0.00	30.257 
15:35	27.2	27.2	27.2	65	17.0	1	5	90	0.00	30.257 
15:40	27.3	27.3	27.3	65	17.1	1	4	90	0.00	30.257 
15:45	27.3	27.3	27.3	66	17.5	1	3	90	0.00	30.255 
15:50	27.2	27.2	27.2	65	17.0	2	5	90	0.00	30.255 
15:55	27.2	27.2	27.2	66	17.4	1	5	90	0.00	30.255 
16:00	27.0	27.0	27.0	67	17.5	1	4	112	0.00	30.253 
16:05	27.0	27.0	27.0	66	17.2	2	6	90	0.00	30.253 
16:10	26.9	26.9	26.9	67	17.4	1	3	112	0.00	30.253 
16:15	26.9	26.9	26.9	67	17.4	1	3	112	0.00	30.252 
16:20	26.9	26.9	26.9	68	17.8	0	2	112	0.00	30.252 
16:25	26.7	26.7	26.7	67	17.2	1	4	112	0.00	30.252 
16:30	26.7	26.7	26.7	67	17.2	2	6	68	0.00	30.249 
16:35	26.6	26.6	26.6	67	17.1	1	4	90	0.00	30.249 
16:40	26.6	26.6	26.6	68	17.5	1	4	112	0.00	30.249 
16:45	26.6	26.6	26.6	68	17.5	1	3	112	0.00	30.249 
16:50	26.4	26.4	26.4	68	17.3	1	2	90	0.00	30.249 
16:55	26.4	26.4	26.4	68	17.3	1	3	68	0.00	30.249 
17:00	26.3	26.3	26.3	68	17.2	1	6	90	0.00	30.246 
17:05	26.3	26.3	26.3	68	17.2	1	3	112	0.00	30.246 
17:10	26.1	26.1	26.1	65	16.0	1	4	135	0.00	30.246 
17:15	26.1	26.1	26.1	64	15.6	1	4	112	0.00	30.248 
17:20	26.0	26.0	26.0	63	15.2	1	3	90	0.00	30.248 
17:25	26.0	26.0	26.0	62	14.8	1	4	112	0.00	30.248 
17:30	26.0	26.0	26.0	61	14.4	1	3	112	0.00	30.247 
17:35	25.8	25.8	25.8	61	14.2	1	3	90	0.00	30.247 
17:40	25.8	25.8	25.8	60	13.9	1	3	135	0.00	30.247 
17:45	25.8	25.8	25.8	60	13.9	1	3	68	0.00	30.242 
17:50	25.7	25.7	25.7	61	14.1	0	3	90	0.00	30.242 
17:55	25.7	25.7	25.7	61	14.1	0	3	90	0.00	30.242 
18:00	25.6	25.6	25.6	62	14.4	0	3	90	0.00	30.238 
18:05	25.6	25.6	25.6	62	14.4	0	2	90	0.00	30.238 
18:10	25.6	25.6	25.6	62	14.4	1	3	90	0.00	30.238 
18:15	25.6	25.6	25.6	62	14.4	1	2	90	0.00	30.236 
18:20	25.6	25.6	25.6	63	14.8	1	4	112	0.00	30.236 
18:25	25.6	25.6	25.6	63	14.8	1	4	135	0.00	30.236 
18:30	25.4	25.4	25.4	65	15.3	1	3	135	0.00	30.222 
18:35	25.4	25.4	25.4	66	15.7	0	2	112	0.00	30.222 
18:40	25.3	25.3	25.3	67	15.9	1	3	90	0.00	30.222 
18:45	25.1	25.1	25.1	68	16.1	1	3	112	0.00	30.214 
18:50	25.1	25.1	25.1	67	15.7	1	4	135	0.00	30.214 
18:55	25.1	25.1	25.1	66	15.4	1	4	112	0.00	30.214 
19:00	25.1	25.1	25.1	65	15.0	1	5	112	0.00	30.209 
19:05	25.1	25.1	25.1	64	14.7	1	4	135	0.00	30.209 
19:10	25.1	25.1	25.1	65	15.0	1	3	135	0.00	30.209 
19:15	25.1	25.1	25.1	65	15.0	0	3	158	0.00	30.209 
19:20	25.1	25.1	25.1	64	14.7	1	3	68	0.00	30.209 
19:25	25.0	25.0	25.0	63	14.2	1	4	135	0.00	30.209 
19:30	25.0	25.0	25.0	62	13.8	1	3	112	0.00	30.198 
19:35	25.0	25.0	25.0	62	13.8	1	4	90	0.00	30.198 
19:40	25.0	25.0	25.0	63	14.2	1	3	90	0.00	30.198 
19:45	24.8	24.8	24.8	63	14.0	1	3	90	0.00	30.192 
19:50	24.8	24.8	24.8	63	14.0	1	3	90	0.00	30.192 
19:55	24.8	24.8	24.8	63	14.0	1	5	90	0.00	30.192 
20:00	24.8	24.8	24.8	63	14.0	1	4	112	0.00	30.181 
20:05	25.0	25.0	25.0	63	14.2	1	2	90	0.00	30.181 
20:10	25.0	25.0	25.0	63	14.2	1	3	112	0.00	30.181 
20:15	25.0	25.0	25.0	63	14.2	1	4	135	0.00	30.172 
20:20	25.0	25.0	25.0	62	13.8	1	3	112	0.00	30.172 
20:25	25.0	25.0	25.0	62	13.8	1	3	112	0.00	30.172 
20:30	25.1	25.1	25.1	63	14.3	1	2	135	0.00	30.172 
20:35	25.1	25.1	25.1	63	14.3	1	3	90	0.00	30.172 
20:40	25.1	25.1	25.1	62	13.9	1	5	112	0.00	30.172 
20:45	25.3	25.3	25.3	62	14.1	1	3	112	0.00	30.169 
20:50	25.3	25.3	25.3	62	14.1	1	4	90	0.00	30.169 
20:55	25.4	25.4	25.4	62	14.2	1	2	112	0.00	30.169 
21:00	25.4	25.4	25.4	62	14.2	1	3	112	0.00	30.161 
21:05	25.4	25.4	25.4	62	14.2	1	5	112	0.00	30.161 
21:10	25.4	25.4	25.4	62	14.2	1	5	90	0.00	30.161 
21:15	25.6	25.6	25.6	61	14.0	1	5	90	0.00	30.159 
21:20	25.6	25.6	25.6	61	14.0	1	4	90	0.00	30.159 
21:25	25.7	25.7	25.7	61	14.1	1	5	112	0.00	30.159 
21:30	25.7	25.7	25.7	61	14.1	1	3	135	0.00	30.154 
21:35	25.7	25.7	25.7	61	14.1	1	4	90	0.00	30.154 
21:40	25.7	25.7	25.7	61	14.1	1	4	90	0.00	30.154 
21:45	25.7	25.7	25.7	61	14.1	1	5	90	0.00	30.150 
21:50	25.8	25.8	25.8	61	14.2	1	3	90	0.00	30.150 
21:55	25.8	25.8	25.8	61	14.2	1	3	112	0.00	30.150 
22:00	25.8	25.8	25.8	61	14.2	1	3	90	0.00	30.141 
22:05	25.8	25.8	25.8	62	14.6	1	3	90	0.00	30.141 
22:10	25.8	25.8	25.8	62	14.6	1	4	135	0.00	30.141 
22:15	25.8	25.8	25.8	62	14.6	1	4	135	0.00	30.137 
22:20	25.8	25.8	25.8	62	14.6	0	2	68	0.00	30.137 
22:25	25.8	25.8	25.8	62	14.6	1	4	90	0.00	30.137 
22:30	26.0	26.0	26.0	62	14.8	1	2	90	0.00	30.135 
22:35	26.0	26.0	26.0	63	15.2	0	2	112	0.00	30.135 
22:40	26.0	26.0	26.0	63	15.2	0	2	112	0.00	30.135 
22:45	26.0	26.0	26.0	63	15.2	0	2	112	0.00	30.133 
22:50	26.0	26.0	26.0	63	15.2	1	3	90	0.00	30.133 
22:55	26.0	26.0	26.0	63	15.2	1	4	90	0.00	30.133 
23:00	26.1	26.1	26.1	63	15.3	1	4	90	0.00	30.128 
23:05	26.3	26.3	26.3	63	15.4	1	4	112	0.00	30.128 
23:10	26.4	26.4	26.4	64	15.9	1	5	90	0.00	30.128 
23:15	26.4	26.4	26.4	64	15.9	1	4	90	0.00	30.122 
23:20	26.6	26.6	26.6	63	15.7	1	4	90	0.00	30.122 
23:25	26.6	26.6	26.6	64	16.1	1	3	135	0.00	30.122 
23:30	26.7	26.7	26.7	64	16.2	1	5	90	0.00	30.116 
23:35	26.9	26.9	26.9	64	16.4	1	6	90	0.00	30.116 
23:40	27.0	27.0	27.0	64	16.5	1	4	112	0.00	30.116 
23:45	27.0	27.0	27.0	64	16.5	1	5	90	0.00	30.114 
23:50	27.2	27.2	27.2	66	17.4	3	6	90	0.00	30.114 
23:55	26.9	26.9	26.9	70	18.4	3	10	112	0.00	30.114 

CoCoRaHS
IN-AL-39
A2 Web Hosting
Creative Commons License
GoDaddy
search engine by freefind advanced

loaded 2018-11-21 01:16:47 • last modified 2010-11-18 10:43:29
Privacy PolicyDisclaimer
• wx.awcolley.com is powered by PmWiki v.2002016 •
• all content (unless otherwise noted) © 2018 A W Colley